Time;durP1;ratioP1;P1;durP2;ratioP2;P2;SDS_P1;SDS_P2;PMS_P1;PMS_P2;Temp;Humidity;BMP_temperature;BMP_pressure;BME280_temperature;BME280_humidity;BME280_pressure;Samples;Min_cycle;Max_cycle;Signal;HPM_P1;HPM_P2
2021/12/22 00:02:03;;;;;;;5.95;2.40;;;18.70;53.70;;;;;;5132990;28;20156;-85
2021/12/22 00:04:31;;;;;;;10.50;2.30;;;18.60;53.60;;;;;;5115773;27;20191;-85
2021/12/22 00:06:57;;;;;;;11.95;2.67;;;18.70;53.70;;;;;;5136398;27;20526;-84
2021/12/22 00:09:23;;;;;;;6.70;2.50;;;18.60;53.60;;;;;;5136975;27;20148;-85
2021/12/22 00:11:49;;;;;;;9.70;2.33;;;18.60;53.60;;;;;;5137118;27;20226;-85
2021/12/22 00:14:15;;;;;;;8.98;2.45;;;18.60;53.40;;;;;;5119888;27;20152;-84
2021/12/22 00:16:40;;;;;;;11.23;2.60;;;18.50;53.50;;;;;;5119863;27;20509;-85
2021/12/22 00:19:06;;;;;;;11.00;2.70;;;18.50;53.40;;;;;;5137245;27;20242;-84
2021/12/22 00:21:31;;;;;;;10.52;2.58;;;18.60;53.30;;;;;;5103436;27;20194;-84
2021/12/22 00:23:58;;;;;;;6.15;2.33;;;18.60;53.10;;;;;;5102567;27;20294;-84
2021/12/22 00:26:24;;;;;;;8.13;2.50;;;18.60;53.30;;;;;;5120036;27;20147;-85
2021/12/22 00:28:50;;;;;;;12.15;3.13;;;18.60;53.10;;;;;;5119760;27;20205;-84
2021/12/22 00:31:18;;;;;;;9.10;2.42;;;18.60;53.10;;;;;;5119681;27;20311;-85
2021/12/22 00:33:48;;;;;;;8.00;2.50;;;18.60;53.30;;;;;;5119756;27;20163;-85
2021/12/22 00:36:14;;;;;;;8.63;2.70;;;18.70;53.10;;;;;;5119856;27;20266;-85
2021/12/22 00:38:40;;;;;;;8.15;2.78;;;18.60;53.30;;;;;;5102523;27;20166;-84
2021/12/22 00:41:06;;;;;;;7.43;2.63;;;18.50;53.50;;;;;;5136511;27;20147;-84
2021/12/22 00:43:31;;;;;;;14.35;2.83;;;18.50;53.30;;;;;;5137344;27;20155;-84
2021/12/22 00:45:57;;;;;;;6.95;2.42;;;18.60;53.40;;;;;;5119675;27;20164;-85
2021/12/22 00:48:23;;;;;;;7.63;2.70;;;18.60;53.40;;;;;;5119045;27;20159;-84
2021/12/22 00:50:49;;;;;;;7.03;2.58;;;18.60;53.10;;;;;;5119584;27;20159;-85
2021/12/22 00:53:14;;;;;;;7.75;2.40;;;18.50;53.50;;;;;;5102274;27;20170;-84
2021/12/22 00:55:41;;;;;;;11.40;2.70;;;18.60;52.70;;;;;;5119118;27;20162;-84
2021/12/22 00:58:07;;;;;;;6.72;2.50;;;18.50;53.40;;;;;;5136056;27;20178;-84
2021/12/22 01:00:33;;;;;;;10.23;2.60;;;18.50;53.10;;;;;;5136061;27;20179;-85
2021/12/22 01:02:58;;;;;;;8.52;2.70;;;18.50;52.90;;;;;;5119051;27;20559;-84
2021/12/22 01:05:25;;;;;;;6.20;2.60;;;18.50;53.20;;;;;;5118838;27;20183;-84
2021/12/22 01:07:51;;;;;;;10.02;3.03;;;18.50;53.10;;;;;;5136019;27;20174;-85
2021/12/22 01:10:19;;;;;;;7.93;2.33;;;18.50;53.30;;;;;;5118855;27;20159;-85
2021/12/22 01:12:45;;;;;;;8.20;2.40;;;18.50;53.30;;;;;;5101970;27;20246;-84
2021/12/22 01:15:12;;;;;;;5.45;2.17;;;18.50;53.00;;;;;;5135806;27;20238;-84
2021/12/22 01:17:42;;;;;;;7.50;2.17;;;18.50;53.30;;;;;;5135353;27;20152;-84
2021/12/22 01:20:16;;;;;;;11.95;2.78;;;18.50;53.20;;;;;;5102821;27;20202;-84
2021/12/22 01:22:48;;;;;;;8.02;2.85;;;18.50;53.30;;;;;;5119616;27;20216;-84
2021/12/22 01:25:16;;;;;;;8.63;2.67;;;18.60;53.00;;;;;;5119216;27;20183;-84
2021/12/22 01:27:43;;;;;;;6.25;2.40;;;18.50;52.90;;;;;;5118966;27;20301;-85
2021/12/22 01:30:13;;;;;;;7.43;2.40;;;18.50;52.70;;;;;;5101548;27;20617;-85
2021/12/22 01:32:39;;;;;;;6.35;2.65;;;18.50;52.60;;;;;;5119178;27;20148;-85
2021/12/22 01:35:09;;;;;;;5.88;2.75;;;18.50;52.70;;;;;;5118059;27;20167;-84
2021/12/22 01:37:35;;;;;;;5.88;2.35;;;18.50;52.90;;;;;;5118861;27;20189;-85
2021/12/22 01:40:01;;;;;;;6.20;2.50;;;18.60;52.40;;;;;;5118291;27;20637;-84
2021/12/22 01:42:27;;;;;;;9.38;2.40;;;18.50;52.60;;;;;;5135190;27;20257;-85
2021/12/22 01:45:25;;;;;;;9.75;2.45;;;18.60;52.30;;;;;;5118026;27;20699;-85
2021/12/22 01:50:38;;;;;;;7.13;2.70;;;18.60;52.50;;;;;;5119710;27;20242;-84
2021/12/22 01:53:07;;;;;;;11.57;3.08;;;18.50;52.70;;;;;;5134995;27;20147;-85
2021/12/22 01:55:36;;;;;;;6.90;2.83;;;18.60;52.60;;;;;;5118232;27;20156;-84
2021/12/22 01:58:02;;;;;;;5.25;2.15;;;18.50;52.60;;;;;;5118426;27;20661;-84
2021/12/22 02:00:28;;;;;;;5.78;2.70;;;18.50;52.50;;;;;;5117640;27;20540;-84
2021/12/22 02:02:55;;;;;;;7.03;2.53;;;18.50;52.70;;;;;;5117814;27;20243;-84
2021/12/22 02:05:20;;;;;;;9.82;2.40;;;18.50;53.00;;;;;;5100772;27;20187;-84
2021/12/22 02:07:49;;;;;;;4.40;2.17;;;18.40;52.80;;;;;;5117976;27;20264;-85
2021/12/22 02:10:34;;;;;;;4.85;2.53;;;18.50;52.60;;;;;;5118044;27;20170;-85
2021/12/22 02:13:00;;;;;;;6.18;2.60;;;18.50;52.30;;;;;;5134664;27;20491;-85
2021/12/22 02:15:29;;;;;;;6.25;2.78;;;18.50;52.60;;;;;;5117630;27;20147;-84
2021/12/22 02:17:57;;;;;;;6.25;2.70;;;18.50;52.60;;;;;;5101827;27;20163;-84
2021/12/22 02:20:23;;;;;;;5.57;2.63;;;18.50;52.30;;;;;;5117861;27;20150;-84
2021/12/22 02:22:48;;;;;;;6.63;2.45;;;18.50;52.40;;;;;;5134619;27;20236;-85
2021/12/22 02:25:19;;;;;;;5.97;2.53;;;18.50;52.40;;;;;;5134559;27;20183;-85
2021/12/22 02:27:53;;;;;;;9.60;2.65;;;18.50;52.10;;;;;;5117479;27;20159;-85
2021/12/22 02:30:26;;;;;;;10.00;2.83;;;18.50;52.20;;;;;;5134184;27;20163;-84
2021/12/22 02:33:20;;;;;;;6.88;2.55;;;18.50;52.40;;;;;;5118097;27;20163;-84
2021/12/22 02:35:41;;;;;;;9.45;2.53;;;18.50;52.20;;;;;;5120353;27;20224;-84
2021/12/22 02:38:13;;;;;;;5.40;2.30;;;18.50;52.40;;;;;;5101149;27;20215;-84
2021/12/22 02:40:39;;;;;;;5.15;2.40;;;18.50;52.20;;;;;;5117936;27;20187;-85
2021/12/22 02:43:05;;;;;;;5.35;2.30;;;18.40;52.30;;;;;;5100073;27;20175;-85
2021/12/22 02:45:33;;;;;;;7.38;2.67;;;18.40;52.20;;;;;;5116635;27;20720;-84
2021/12/22 02:48:00;;;;;;;9.05;2.80;;;18.50;52.40;;;;;;5133936;27;20662;-85
2021/12/22 02:50:26;;;;;;;6.65;2.40;;;18.30;52.20;;;;;;5116958;27;20204;-84
2021/12/22 02:53:04;;;;;;;7.45;2.67;;;18.40;52.50;;;;;;5134117;27;20167;-84
2021/12/22 02:55:43;;;;;;;7.15;2.47;;;18.40;52.10;;;;;;5119362;27;20247;-84
2021/12/22 02:58:20;;;;;;;5.50;2.50;;;18.40;52.10;;;;;;5118597;27;20581;-84
2021/12/22 03:01:00;;;;;;;6.32;2.25;;;18.40;51.90;;;;;;5117594;27;20167;-84
2021/12/22 03:03:50;;;;;;;9.68;2.67;;;18.50;51.70;;;;;;5134108;27;20147;-84
2021/12/22 03:06:14;;;;;;;6.45;2.55;;;18.50;51.80;;;;;;5119582;27;20660;-84
2021/12/22 03:08:40;;;;;;;10.52;2.50;;;18.50;52.20;;;;;;5133675;27;20151;-84
2021/12/22 03:11:06;;;;;;;6.38;2.78;;;18.50;52.10;;;;;;5116560;27;20155;-84
2021/12/22 03:13:32;;;;;;;5.72;2.20;;;18.50;51.80;;;;;;5116564;27;20564;-84
2021/12/22 03:15:58;;;;;;;6.63;2.50;;;18.50;52.00;;;;;;5133689;27;20242;-85
2021/12/22 03:18:24;;;;;;;6.82;2.15;;;18.50;51.90;;;;;;5099543;27;20208;-85
2021/12/22 03:20:59;;;;;;;4.10;2.20;;;18.40;51.90;;;;;;5133775;27;20648;-84
2021/12/22 03:23:26;;;;;;;5.50;2.30;;;18.40;52.10;;;;;;5102210;27;20173;-85
2021/12/22 03:25:52;;;;;;;8.40;2.55;;;18.40;52.10;;;;;;5116209;27;20222;-84
2021/12/22 03:28:18;;;;;;;6.53;2.45;;;18.40;52.10;;;;;;5116337;27;20223;-85
2021/12/22 03:30:44;;;;;;;5.10;2.45;;;18.40;51.70;;;;;;5133245;27;20156;-85
2021/12/22 03:33:10;;;;;;;6.15;2.47;;;18.40;51.90;;;;;;5099110;27;20189;-84
2021/12/22 03:35:38;;;;;;;5.88;2.40;;;18.40;51.80;;;;;;5099504;27;20209;-85
2021/12/22 03:38:03;;;;;;;8.27;2.65;;;18.40;52.10;;;;;;5116346;28;20195;-84
2021/12/22 03:40:30;;;;;;;4.97;2.50;;;18.40;52.00;;;;;;5115989;27;20508;-84
2021/12/22 03:42:56;;;;;;;8.05;2.50;;;18.30;52.50;;;;;;5115935;28;20166;-84
2021/12/22 03:45:22;;;;;;;7.30;2.60;;;18.40;51.90;;;;;;5115840;28;20223;-85
2021/12/22 03:47:47;;;;;;;4.63;2.20;;;18.40;51.80;;;;;;5116165;28;20144;-84
2021/12/22 03:50:16;;;;;;;8.40;3.00;;;18.40;51.80;;;;;;5098915;28;20159;-85
2021/12/22 03:52:41;;;;;;;5.47;2.17;;;18.40;51.80;;;;;;5133036;28;20609;-85
2021/12/22 03:55:08;;;;;;;8.07;2.70;;;18.30;51.70;;;;;;5116012;28;20163;-84
2021/12/22 03:57:33;;;;;;;4.90;2.05;;;18.30;51.90;;;;;;5115848;28;20155;-85
2021/12/22 04:00:02;;;;;;;7.28;2.58;;;18.30;52.10;;;;;;5116068;28;20160;-84
2021/12/22 04:02:29;;;;;;;5.85;2.55;;;18.30;52.20;;;;;;5099934;28;20163;-84
2021/12/22 04:04:56;;;;;;;8.50;2.45;;;18.40;52.00;;;;;;5099086;28;20199;-84
2021/12/22 04:07:22;;;;;;;4.13;2.20;;;18.30;52.00;;;;;;5116089;28;20621;-84
2021/12/22 04:09:47;;;;;;;3.85;2.38;;;18.30;52.10;;;;;;5132901;28;20143;-85
2021/12/22 04:12:13;;;;;;;5.97;2.50;;;18.30;51.50;;;;;;5098555;28;20160;-84
2021/12/22 04:14:39;;;;;;;7.90;2.38;;;18.20;52.20;;;;;;5132823;28;20152;-85
2021/12/22 04:17:06;;;;;;;4.03;2.05;;;18.20;52.40;;;;;;5132861;28;20147;-84
2021/12/22 04:19:32;;;;;;;6.18;2.80;;;18.20;52.40;;;;;;5115804;28;20239;-84
2021/12/22 04:21:58;;;;;;;5.50;2.30;;;18.20;51.70;;;;;;5099400;28;20212;-85
2021/12/22 04:24:24;;;;;;;8.25;2.47;;;18.20;51.50;;;;;;5115403;28;20231;-84
2021/12/22 04:26:51;;;;;;;7.55;2.60;;;18.20;51.60;;;;;;5115840;28;20160;-84
2021/12/22 04:29:18;;;;;;;4.78;2.58;;;18.30;51.70;;;;;;5115867;28;20156;-84
2021/12/22 04:31:45;;;;;;;5.30;2.50;;;18.20;51.50;;;;;;5098621;28;20206;-84
2021/12/22 04:34:10;;;;;;;7.00;2.42;;;18.30;51.50;;;;;;5132773;28;20196;-84
2021/12/22 04:36:37;;;;;;;5.53;2.30;;;18.30;51.00;;;;;;5115725;28;20152;-84
2021/12/22 04:39:03;;;;;;;5.38;2.42;;;18.30;51.30;;;;;;5115760;28;20179;-85
2021/12/22 04:41:29;;;;;;;5.30;2.20;;;18.30;51.20;;;;;;5134270;27;20597;-85
2021/12/22 04:43:54;;;;;;;6.03;2.50;;;18.40;50.80;;;;;;5115410;28;20222;-84
2021/12/22 04:46:21;;;;;;;5.75;2.10;;;18.50;51.30;;;;;;5115551;28;20182;-85
2021/12/22 04:48:48;;;;;;;5.22;2.55;;;18.40;50.90;;;;;;5115497;28;20707;-85
2021/12/22 04:51:23;;;;;;;6.47;2.78;;;18.40;50.90;;;;;;5115663;27;20147;-85
2021/12/22 04:53:58;;;;;;;3.90;2.30;;;18.30;50.60;;;;;;5104872;27;20513;-84
2021/12/22 04:56:24;;;;;;;4.85;2.30;;;18.40;50.40;;;;;;5120746;27;20154;-84
2021/12/22 04:58:50;;;;;;;5.18;2.50;;;18.50;50.50;;;;;;5102347;27;20258;-85
2021/12/22 05:01:15;;;;;;;5.20;2.38;;;18.50;50.00;;;;;;5102659;27;20578;-84
2021/12/22 05:03:41;;;;;;;5.80;2.30;;;18.40;49.90;;;;;;5118956;27;20171;-85
2021/12/22 05:06:07;;;;;;;4.57;2.30;;;18.50;49.90;;;;;;5119134;27;20159;-84
2021/12/22 05:08:32;;;;;;;5.30;2.30;;;18.50;50.10;;;;;;5118898;27;20167;-84
2021/12/22 05:10:58;;;;;;;5.47;2.45;;;18.60;49.80;;;;;;5136051;27;20163;-85
2021/12/22 05:13:24;;;;;;;4.68;2.47;;;18.50;50.20;;;;;;5118764;27;20183;-84
2021/12/22 05:15:51;;;;;;;3.90;2.40;;;18.60;49.90;;;;;;5136251;27;20151;-85
2021/12/22 05:18:24;;;;;;;5.82;2.47;;;18.60;49.80;;;;;;5118872;27;20217;-84
2021/12/22 05:20:50;;;;;;;5.22;2.33;;;18.60;49.60;;;;;;5103665;27;20593;-84
2021/12/22 05:23:16;;;;;;;4.05;2.15;;;18.70;49.60;;;;;;5118738;27;20222;-84
2021/12/22 05:25:42;;;;;;;5.68;2.30;;;18.60;49.50;;;;;;5135908;27;20619;-85
2021/12/22 05:28:08;;;;;;;4.90;2.35;;;18.60;49.60;;;;;;5118702;27;20212;-85
2021/12/22 05:30:34;;;;;;;4.55;2.22;;;18.60;49.40;;;;;;5118597;27;20151;-84
2021/12/22 05:32:59;;;;;;;6.63;2.20;;;18.60;49.80;;;;;;5118497;27;20518;-84
2021/12/22 05:35:25;;;;;;;5.00;2.40;;;18.60;49.10;;;;;;5135441;27;20159;-84
2021/12/22 05:37:51;;;;;;;4.32;2.22;;;18.60;49.30;;;;;;5118259;27;20171;-84
2021/12/22 05:40:16;;;;;;;5.50;2.20;;;18.60;49.10;;;;;;5118456;27;20194;-84
2021/12/22 05:42:42;;;;;;;4.40;2.22;;;18.60;49.60;;;;;;5135392;27;20212;-84
2021/12/22 05:45:08;;;;;;;3.22;2.42;;;18.70;49.30;;;;;;5117697;27;20586;-84
2021/12/22 05:47:34;;;;;;;5.32;2.40;;;18.70;49.20;;;;;;5118491;27;20175;-84
2021/12/22 05:50:03;;;;;;;7.00;2.65;;;18.70;49.00;;;;;;5118361;27;20516;-84
2021/12/22 05:52:28;;;;;;;5.70;2.25;;;18.70;49.10;;;;;;5118472;27;20181;-85
2021/12/22 05:54:54;;;;;;;3.70;2.08;;;18.60;49.00;;;;;;5118119;27;20160;-84
2021/12/22 05:57:20;;;;;;;3.78;2.05;;;18.70;49.20;;;;;;5134987;27;20155;-85
2021/12/22 05:59:46;;;;;;;4.13;2.30;;;18.70;49.10;;;;;;5101139;27;20162;-84
2021/12/22 06:02:11;;;;;;;4.47;2.40;;;18.70;49.20;;;;;;5135077;27;20156;-85
2021/12/22 06:04:38;;;;;;;4.55;2.53;;;18.70;48.90;;;;;;5136127;27;20518;-84
2021/12/22 06:07:04;;;;;;;3.65;1.95;;;18.70;48.60;;;;;;5118839;27;20152;-84
2021/12/22 06:09:31;;;;;;;2.70;1.90;;;18.70;48.60;;;;;;5119831;27;20158;-84
2021/12/22 06:11:57;;;;;;;2.92;2.20;;;18.70;49.10;;;;;;5136209;27;20159;-83
2021/12/22 06:14:25;;;;;;;3.30;2.08;;;18.70;48.70;;;;;;5119004;27;20147;-83
2021/12/22 06:16:51;;;;;;;4.70;1.90;;;18.60;48.80;;;;;;5118913;27;20175;-84
2021/12/22 06:19:19;;;;;;;2.47;2.10;;;18.70;48.90;;;;;;5136112;27;20155;-83
2021/12/22 06:21:46;;;;;;;4.50;2.20;;;18.70;48.30;;;;;;5135496;27;20164;-83
2021/12/22 06:24:12;;;;;;;2.70;2.05;;;18.70;48.40;;;;;;5101733;27;20244;-85
2021/12/22 06:26:38;;;;;;;5.80;2.35;;;18.70;48.40;;;;;;5135604;27;20148;-84
2021/12/22 06:29:04;;;;;;;4.88;2.20;;;18.80;48.50;;;;;;5101126;27;20167;-84
2021/12/22 06:31:30;;;;;;;5.90;2.20;;;18.80;48.50;;;;;;5137018;27;20212;-83
2021/12/22 06:33:55;;;;;;;3.78;1.80;;;18.80;48.40;;;;;;5119412;27;20490;-83
2021/12/22 06:36:21;;;;;;;3.15;1.92;;;18.80;48.40;;;;;;5117858;27;20198;-84
2021/12/22 06:38:47;;;;;;;4.00;2.40;;;18.80;48.30;;;;;;5133838;27;20231;-84
2021/12/22 06:41:12;;;;;;;5.03;2.38;;;18.80;48.30;;;;;;5117932;27;20182;-84
2021/12/22 06:43:38;;;;;;;3.67;2.08;;;18.80;48.20;;;;;;5118251;27;20633;-84
2021/12/22 06:46:04;;;;;;;4.07;2.10;;;18.80;48.00;;;;;;5134860;27;20195;-84
2021/12/22 06:48:31;;;;;;;4.38;2.35;;;18.80;48.00;;;;;;5135555;27;20625;-84
2021/12/22 06:50:57;;;;;;;3.35;2.03;;;18.80;48.20;;;;;;5117971;27;20170;-84
2021/12/22 06:53:25;;;;;;;4.05;1.95;;;18.80;48.20;;;;;;5117536;27;20160;-84
2021/12/22 06:55:51;;;;;;;4.45;2.25;;;18.80;48.20;;;;;;5117670;27;20230;-85
2021/12/22 06:58:19;;;;;;;4.28;2.28;;;18.90;48.20;;;;;;5135060;27;20207;-84
2021/12/22 07:00:47;;;;;;;5.20;2.40;;;18.90;48.10;;;;;;5134677;27;20158;-83
2021/12/22 07:03:13;;;;;;;5.25;2.50;;;18.90;48.10;;;;;;5136235;27;20156;-84
2021/12/22 07:05:38;;;;;;;3.22;2.03;;;18.90;47.90;;;;;;5134896;27;20199;-84
2021/12/22 07:08:04;;;;;;;2.50;1.90;;;18.80;48.10;;;;;;5136932;27;20151;-84
2021/12/22 07:10:30;;;;;;;3.72;2.05;;;18.90;48.00;;;;;;5135322;27;20147;-85
2021/12/22 07:12:55;;;;;;;4.22;2.17;;;18.80;47.70;;;;;;5135943;27;20155;-83
2021/12/22 07:15:21;;;;;;;4.85;2.00;;;18.90;47.90;;;;;;5116999;27;20170;-83
2021/12/22 07:17:48;;;;;;;3.70;2.15;;;18.90;47.80;;;;;;5134530;27;20152;-84
2021/12/22 07:20:14;;;;;;;3.03;2.17;;;18.90;47.80;;;;;;5100251;27;20196;-83
2021/12/22 07:22:40;;;;;;;3.33;2.10;;;18.90;47.80;;;;;;5133984;27;20507;-84
2021/12/22 07:25:06;;;;;;;3.00;1.90;;;18.90;47.80;;;;;;5134093;27;20187;-84
2021/12/22 07:27:32;;;;;;;4.10;2.35;;;18.90;47.70;;;;;;5117338;27;20163;-84
2021/12/22 07:29:57;;;;;;;2.45;1.88;;;18.90;47.80;;;;;;5100007;27;20156;-85
2021/12/22 07:32:23;;;;;;;3.33;2.22;;;18.90;47.70;;;;;;5133846;27;20215;-84
2021/12/22 07:35:09;;;;;;;5.18;2.10;;;18.90;47.80;;;;;;5133873;27;20161;-84
2021/12/22 07:37:58;;;;;;;3.25;1.90;;;18.90;47.70;;;;;;5119024;27;20520;-84
2021/12/22 07:40:23;;;;;;;4.53;2.28;;;18.80;47.40;;;;;;5106239;27;20155;-84
2021/12/22 07:42:50;;;;;;;2.75;1.95;;;18.90;47.30;;;;;;5133493;27;20488;-84
2021/12/22 07:45:16;;;;;;;2.83;2.22;;;18.90;47.60;;;;;;5116351;28;20215;-84
2021/12/22 07:47:41;;;;;;;3.28;2.28;;;18.90;47.40;;;;;;5099486;28;20167;-84
2021/12/22 07:50:09;;;;;;;3.53;1.92;;;18.90;47.50;;;;;;5115988;28;20163;-85
2021/12/22 07:52:36;;;;;;;3.33;2.10;;;18.90;47.40;;;;;;5133927;27;20163;-84
2021/12/22 07:55:02;;;;;;;3.88;1.92;;;18.90;47.60;;;;;;5116537;28;20227;-84
2021/12/22 07:57:28;;;;;;;3.05;2.08;;;18.90;47.50;;;;;;5116262;28;20174;-83
2021/12/22 07:59:54;;;;;;;3.22;1.83;;;18.90;47.30;;;;;;5099465;28;20170;-83
2021/12/22 08:02:20;;;;;;;2.70;2.10;;;18.90;47.40;;;;;;5133531;28;20147;-85
2021/12/22 08:04:47;;;;;;;3.60;1.88;;;18.90;46.90;;;;;;5132750;28;20191;-84
2021/12/22 08:07:12;;;;;;;4.00;2.25;;;18.90;46.50;;;;;;5134136;27;20509;-83
2021/12/22 08:09:40;;;;;;;2.50;1.92;;;19.00;46.80;;;;;;5132781;28;20155;-85
2021/12/22 08:12:06;;;;;;;4.13;2.30;;;19.00;46.50;;;;;;5116316;28;20170;-85
2021/12/22 08:14:33;;;;;;;3.65;2.25;;;18.90;46.70;;;;;;5116096;28;20203;-85
2021/12/22 08:16:59;;;;;;;3.45;2.08;;;18.90;46.10;;;;;;5115698;28;20150;-84
2021/12/22 08:19:24;;;;;;;2.63;1.80;;;18.90;46.70;;;;;;5134146;27;20235;-85
2021/12/22 08:21:50;;;;;;;3.13;1.90;;;19.00;46.40;;;;;;5115624;28;20246;-84
2021/12/22 08:24:15;;;;;;;2.55;2.00;;;19.00;46.20;;;;;;5134071;28;20187;-84
2021/12/22 08:26:42;;;;;;;2.65;1.83;;;19.00;46.60;;;;;;5134481;27;20159;-86
2021/12/22 08:29:08;;;;;;;2.58;1.95;;;19.00;46.30;;;;;;5121153;27;20151;-85
2021/12/22 08:31:35;;;;;;;2.75;1.90;;;19.00;46.50;;;;;;5138755;27;20489;-86
2021/12/22 08:34:00;;;;;;;2.40;2.00;;;19.00;46.70;;;;;;5103509;27;20219;-83
2021/12/22 08:39:07;;;;;;;4.28;2.28;;;19.00;46.60;;;;;;5138539;27;20191;-84
2021/12/22 08:41:34;;;;;;;2.75;2.08;;;19.00;46.40;;;;;;5122247;27;20533;-83
2021/12/22 08:44:02;;;;;;;3.75;2.10;;;19.00;46.20;;;;;;5119445;27;20288;-84
2021/12/22 08:46:29;;;;;;;2.50;2.20;;;19.00;46.00;;;;;;5102616;27;20168;-84
2021/12/22 08:48:56;;;;;;;2.83;2.00;;;19.10;46.30;;;;;;5102125;27;20293;-84
2021/12/22 08:51:22;;;;;;;3.80;2.17;;;19.10;46.30;;;;;;5119141;27;20601;-84
2021/12/22 08:53:47;;;;;;;2.85;2.20;;;19.10;46.10;;;;;;5119035;27;20164;-85
2021/12/22 08:56:13;;;;;;;3.53;2.25;;;19.10;46.20;;;;;;5103296;27;20528;-84
2021/12/22 08:58:39;;;;;;;6.63;2.20;;;19.00;46.80;;;;;;5119634;27;20685;-85
2021/12/22 09:01:05;;;;;;;3.53;2.33;;;19.10;46.40;;;;;;5136403;27;20636;-84
2021/12/22 09:03:32;;;;;;;2.78;1.90;;;19.10;46.40;;;;;;5119430;27;20146;-84
2021/12/22 09:05:58;;;;;;;3.90;2.30;;;19.10;46.30;;;;;;5136673;27;20187;-85
2021/12/22 09:08:32;;;;;;;4.05;2.33;;;19.10;45.60;;;;;;5136850;27;20158;-85
2021/12/22 09:10:59;;;;;;;4.75;2.15;;;19.10;45.60;;;;;;5120169;27;20164;-85
2021/12/22 09:13:25;;;;;;;3.17;2.35;;;19.10;45.90;;;;;;5136338;27;20154;-85
2021/12/22 09:15:51;;;;;;;6.05;2.50;;;19.10;45.60;;;;;;5136297;27;20163;-85
2021/12/22 09:18:18;;;;;;;4.07;2.20;;;19.10;46.10;;;;;;5137096;27;20208;-84
2021/12/22 09:20:43;;;;;;;4.32;2.28;;;19.10;46.00;;;;;;5138521;27;20152;-84
2021/12/22 09:23:09;;;;;;;3.58;2.10;;;19.10;45.30;;;;;;5141477;27;20162;-85
2021/12/22 09:25:35;;;;;;;3.08;2.15;;;19.10;46.30;;;;;;5140314;27;20665;-84
2021/12/22 09:28:01;;;;;;;3.05;2.00;;;19.00;46.40;;;;;;5141453;27;20518;-83
2021/12/22 09:30:31;;;;;;;6.65;2.25;;;19.10;46.20;;;;;;5126028;27;20201;-84
2021/12/22 09:32:58;;;;;;;3.63;2.10;;;19.00;45.80;;;;;;5109963;27;20496;-85
2021/12/22 09:35:25;;;;;;;4.97;2.08;;;19.10;45.70;;;;;;5143512;27;20155;-83
2021/12/22 09:37:52;;;;;;;3.50;2.42;;;19.10;46.00;;;;;;5144675;27;20155;-85
2021/12/22 09:40:18;;;;;;;3.10;2.10;;;19.20;45.70;;;;;;5125561;27;20162;-85
2021/12/22 09:42:43;;;;;;;3.75;2.25;;;19.10;45.70;;;;;;5126778;27;20159;-82
2021/12/22 09:45:15;;;;;;;4.68;2.20;;;19.10;45.30;;;;;;5142136;27;20223;-85
2021/12/22 09:47:59;;;;;;;5.07;1.92;;;19.10;45.70;;;;;;5128989;27;20151;-84
2021/12/22 09:50:38;;;;;;;4.93;2.25;;;19.10;46.20;;;;;;5113632;27;20168;-84
2021/12/22 09:53:05;;;;;;;4.63;2.00;;;19.20;46.00;;;;;;5116302;27;20163;-85
2021/12/22 09:55:34;;;;;;;2.90;1.80;;;19.20;46.30;;;;;;5112140;27;20163;-85
2021/12/22 09:58:01;;;;;;;4.57;2.10;;;19.20;46.50;;;;;;5126709;27;20489;-84
2021/12/22 10:00:27;;;;;;;3.85;2.00;;;19.20;46.40;;;;;;5143346;27;20144;-85
2021/12/22 10:02:53;;;;;;;3.83;2.08;;;19.30;46.50;;;;;;5128599;27;20174;-83
2021/12/22 10:05:20;;;;;;;5.57;1.80;;;19.20;46.80;;;;;;5126862;27;20195;-84
2021/12/22 10:08:05;;;;;;;3.80;2.10;;;19.20;47.00;;;;;;5128544;27;20636;-83
2021/12/22 10:10:31;;;;;;;4.57;2.03;;;19.20;46.80;;;;;;5111983;27;20497;-83
2021/12/22 10:13:16;;;;;;;3.55;2.10;;;19.30;46.50;;;;;;5112850;27;20155;-83
2021/12/22 10:15:43;;;;;;;3.45;2.00;;;19.30;46.40;;;;;;5115254;27;20178;-83
2021/12/22 10:18:12;;;;;;;10.98;2.45;;;19.30;46.40;;;;;;5129617;27;20156;-82
2021/12/22 10:20:40;;;;;;;5.85;2.15;;;19.20;47.00;;;;;;5130169;27;20219;-83
2021/12/22 10:23:23;;;;;;;9.60;2.55;;;19.30;46.40;;;;;;5129192;27;20629;-82
2021/12/22 10:25:54;;;;;;;7.82;2.58;;;19.30;46.70;;;;;;5146778;27;20183;-82
2021/12/22 10:28:20;;;;;;;14.10;2.90;;;19.20;46.70;;;;;;5112801;27;20178;-81
2021/12/22 10:30:55;;;;;;;10.68;2.40;;;19.20;46.60;;;;;;5147601;27;20148;-81
2021/12/22 10:33:25;;;;;;;10.10;2.53;;;19.20;46.90;;;;;;5146588;27;20214;-81
2021/12/22 10:35:58;;;;;;;10.25;2.30;;;19.20;47.10;;;;;;5127509;27;20180;-83
2021/12/22 10:38:29;;;;;;;12.63;2.75;;;19.30;47.10;;;;;;5110934;27;20227;-83
2021/12/22 10:41:11;;;;;;;6.60;2.53;;;19.20;47.50;;;;;;5129459;27;20219;-82
2021/12/22 10:43:42;;;;;;;10.25;2.42;;;19.20;47.40;;;;;;5127192;27;20159;-82
2021/12/22 10:46:14;;;;;;;12.13;2.38;;;19.30;47.60;;;;;;5125631;27;20198;-81
2021/12/22 10:51:36;;;;;;;6.78;2.22;;;19.20;47.80;;;;;;5144771;27;20155;-81
2021/12/22 10:54:06;;;;;;;14.55;2.65;;;19.20;47.10;;;;;;5110843;27;20167;-84
2021/12/22 10:56:33;;;;;;;9.10;2.72;;;19.20;48.00;;;;;;5111098;27;20182;-82
2021/12/22 10:59:06;;;;;;;6.05;2.40;;;19.20;48.20;;;;;;5125450;27;20156;-84
2021/12/22 11:01:35;;;;;;;7.78;2.35;;;19.20;47.90;;;;;;5142862;27;20179;-82
2021/12/22 11:04:06;;;;;;;11.30;2.60;;;19.30;47.90;;;;;;5109258;27;20163;-82
2021/12/22 11:06:34;;;;;;;8.95;2.35;;;19.30;48.20;;;;;;5144028;27;20163;-82
2021/12/22 11:09:01;;;;;;;8.38;2.20;;;19.20;47.50;;;;;;5125579;27;20589;-82
2021/12/22 11:11:32;;;;;;;8.35;2.72;;;19.30;47.60;;;;;;5127513;27;20277;-83
2021/12/22 11:14:11;;;;;;;9.30;2.80;;;19.30;47.50;;;;;;5109785;27;20186;-82
2021/12/22 11:17:06;;;;;;;5.63;2.30;;;19.30;47.80;;;;;;5144734;27;20604;-81
2021/12/22 11:19:37;;;;;;;5.72;2.40;;;19.30;47.60;;;;;;5109799;27;20182;-83
2021/12/22 11:24:36;;;;;;;8.70;2.75;;;19.40;47.00;;;;;;5103883;28;20689;-82
2021/12/22 11:27:04;;;;;;;11.57;2.50;;;19.30;47.20;;;;;;5086447;28;20187;-82
2021/12/22 11:29:44;;;;;;;12.02;2.70;;;19.40;47.40;;;;;;5088816;28;20176;-81
2021/12/22 11:32:14;;;;;;;7.80;2.83;;;19.40;47.80;;;;;;5103695;28;20167;-81
2021/12/22 11:34:40;;;;;;;7.80;2.88;;;19.30;47.50;;;;;;5104711;28;20268;-81
2021/12/22 11:37:11;;;;;;;13.07;2.42;;;19.30;47.10;;;;;;5086170;28;20171;-84
2021/12/22 11:39:37;;;;;;;9.50;2.75;;;19.30;47.80;;;;;;5069745;28;20259;-82
2021/12/22 11:42:10;;;;;;;11.85;2.20;;;19.30;47.00;;;;;;5085119;28;20214;-82
2021/12/22 11:44:37;;;;;;;9.05;3.10;;;19.30;47.30;;;;;;5082887;28;20279;-82
2021/12/22 11:47:10;;;;;;;10.50;2.55;;;19.40;47.20;;;;;;5099020;28;20177;-82
2021/12/22 11:49:53;;;;;;;8.75;2.45;;;19.30;47.80;;;;;;5087879;28;20156;-83
2021/12/22 11:52:30;;;;;;;6.13;2.40;;;19.40;46.70;;;;;;5116730;28;20182;-84
2021/12/22 11:58:27;;;;;;;15.27;2.72;;;19.40;47.60;;;;;;5048140;28;20572;-81
2021/12/22 12:01:09;;;;;;;5.25;2.58;;;19.30;47.90;;;;;;5031626;28;20548;-81
2021/12/22 12:03:44;;;;;;;5.40;2.40;;;19.40;47.70;;;;;;5065840;28;20178;-82
2021/12/22 12:06:19;;;;;;;6.22;2.78;;;19.40;48.00;;;;;;5049991;28;20364;-82
2021/12/22 12:08:49;;;;;;;4.97;2.30;;;19.40;47.90;;;;;;5012506;28;20182;-81
2021/12/22 12:11:22;;;;;;;5.95;2.63;;;19.40;47.90;;;;;;5022156;28;20183;-82
2021/12/22 12:13:56;;;;;;;5.45;2.40;;;19.40;48.40;;;;;;5020157;28;20313;-81
2021/12/22 12:21:57;;;;;;;6.55;2.60;;;19.40;48.00;;;;;;5006105;28;20591;-86
2021/12/22 12:24:42;;;;;;;5.88;2.53;;;19.40;47.60;;;;;;5005812;28;20289;-81
2021/12/22 12:27:43;;;;;;;8.82;2.60;;;19.40;47.80;;;;;;4989993;28;20662;-84
2021/12/22 12:30:18;;;;;;;4.55;2.28;;;19.40;47.70;;;;;;5013760;28;20170;-83
2021/12/22 12:32:57;;;;;;;5.88;2.60;;;19.40;47.50;;;;;;5012583;28;20209;-83
2021/12/22 12:35:28;;;;;;;9.00;2.58;;;19.50;47.40;;;;;;5047050;28;20215;-85
2021/12/22 12:38:19;;;;;;;;;;;;;;;;;;;;;
2021/12/22 12:41:11;;;;;;;6.35;2.60;;;19.40;48.00;;;;;;5049948;28;20414;-88
2021/12/22 12:43:52;;;;;;;6.47;2.60;;;19.40;47.60;;;;;;5062181;28;20283;-85
2021/12/22 12:46:35;;;;;;;3.55;2.13;;;19.40;47.60;;;;;;5115831;27;20203;-84
2021/12/22 12:49:30;;;;;;;6.07;2.60;;;19.40;47.60;;;;;;5111473;27;20167;-87
2021/12/22 12:52:23;;;;;;;5.53;2.53;;;19.40;47.80;;;;;;5128522;27;20174;-86
2021/12/22 12:55:10;;;;;;;6.57;2.53;;;19.40;47.80;;;;;;5138393;27;20178;-87
2021/12/22 12:58:01;;;;;;;6.80;2.30;;;19.40;47.30;;;;;;5124011;27;20172;-88
2021/12/22 13:00:27;;;;;;;2.78;2.22;;;19.40;47.90;;;;;;5081340;28;20715;-85
2021/12/22 13:03:02;;;;;;;4.25;2.03;;;19.40;48.00;;;;;;5064975;28;20180;-87
2021/12/22 13:05:30;;;;;;;7.82;2.50;;;19.40;48.30;;;;;;5070217;28;20196;-86
2021/12/22 13:08:02;;;;;;;5.25;2.35;;;19.40;48.10;;;;;;5071031;28;20252;-87
2021/12/22 13:10:30;;;;;;;5.78;2.58;;;19.40;47.80;;;;;;5067405;28;20168;-85
2021/12/22 13:13:15;;;;;;;5.30;2.50;;;19.40;47.70;;;;;;5070620;28;20188;-85
2021/12/22 13:15:49;;;;;;;5.60;2.28;;;19.40;47.70;;;;;;5088123;28;20263;-86
2021/12/22 13:18:20;;;;;;;5.75;2.95;;;19.40;47.10;;;;;;5084575;28;20167;-86